Airfield :
LOGIN :

Register | Disclaimer

   EN    FR    IT 

 










Legend :    VFR   Marginal VFR   IFR   Intensive IFR   Very Intensive IFR
Visi :
Ceiling :
>= 8 km
>= 3000ft
5 to 8 km
1000 to 3000 ft
1500m to 5 km
500 to 1000 ft
800 to 1500m
200 to 500 ft
< 800m
< 200 ft
Symbols :   Thunderstorms  Fog  Heavy snow  Heavy precipitations  Wind > 20 kt
SIGMETs :     Misc.  Thunderstorms  Icing  Turbulence  Mountain Waves  Volcanic Ashes







- Airport Elevation : 138 ft
- IATA code : BIO


LEBB - Bilbao

CURRENT METAR :
  • 262200Z 27001KT 9999 FEW008 SCT015 BKN025 14/13 Q1022 NOSIG

EXPIRED METARs :
  • 262130Z VRB02KT 9999 FEW008 SCT015 BKN025 14/13 Q1022 NOSIG
  • 262100Z 32005KT 290V350 9999 FEW008 SCT015 BKN025 14/13 Q1022 NOSIG
  • 262030Z VRB02KT 9999 FEW009 SCT015 BKN025 14/13 Q1022 NOSIG
  • 262000Z 29003KT 230V350 9999 FEW009 SCT020 BKN030 14/13 Q1022 NOSIG
  • 261930Z VRB02KT 9999 FEW009 SCT020 BKN030 15/13 Q1022 NOSIG

TAF TAF LEBB
Valid from the 26 at 18:00 until the 27 at 18:00 UTC


261700Z 2618/2718 30008KT 9999 FEW010 BKN020 TX17/2717Z TN13/2702Z
TEMPO 2618/2622 BKN014
BECMG 2619/2622 VRB04KT
BECMG 2713/2715 30010KT
TEMPO 2714/2718 3000 -DZ BKN010
No reported NOTAMs for that airfield.



MET'MAP, your aeronautical weather chart ! - Copyright ORBIFLY December 2007 - Disclaimer

ORBIFLY MET'MAP TEAM :

Programming & Development : Alexandra Zaïnal
Concept & Development : Baudouin d'Aumeries
Co-Development & Prog : Marc-Olivier Méhu
Technical & hardware support : Manuel Goepfert

Contact : metmap@orbifly.com




SOURCES & CREDITS :

   NOAA